createdAt,value
2019-03-02T00:01:42.094Z,51.58
2019-03-02T00:04:10.981Z,52.66
2019-03-02T00:06:37.941Z,52.61
2019-03-02T00:09:04.899Z,52.39
2019-03-02T00:11:31.856Z,51.85
2019-03-02T00:13:58.613Z,51.77
2019-03-02T00:16:25.284Z,51.13
2019-03-02T00:18:52.465Z,50.76
2019-03-02T00:21:19.915Z,51.42
2019-03-02T00:23:46.734Z,51.98
2019-03-02T00:26:13.666Z,51.92
2019-03-02T00:28:40.564Z,51.64
2019-03-02T00:31:07.692Z,51.09
2019-03-02T00:33:34.640Z,51.34
2019-03-02T00:36:01.974Z,51.88
2019-03-02T00:38:28.622Z,51.60
2019-03-02T00:40:55.631Z,52.12
2019-03-02T00:43:23.643Z,51.77
2019-03-02T00:45:50.874Z,51.62
2019-03-02T00:48:18.017Z,52.13
2019-03-02T00:50:46.183Z,52.16
2019-03-02T00:53:12.964Z,51.88
2019-03-02T00:55:39.996Z,51.98
2019-03-02T00:58:06.868Z,52.09
2019-03-02T01:00:33.821Z,51.87
2019-03-02T01:03:00.654Z,52.10
2019-03-02T01:05:27.286Z,53.15
2019-03-02T01:07:55.979Z,53.39
2019-03-02T01:10:22.646Z,53.28
2019-03-02T01:12:50.394Z,52.68
2019-03-02T01:15:17.667Z,52.35
2019-03-02T01:17:45.489Z,52.05
2019-03-02T01:20:12.400Z,51.84
2019-03-02T01:25:23.648Z,51.95
2019-03-02T01:27:50.665Z,52.75
2019-03-02T01:30:17.544Z,52.01
2019-03-02T01:32:44.192Z,51.79
2019-03-02T01:35:12.249Z,51.80
2019-03-02T01:37:39.946Z,51.90
2019-03-02T01:40:07.779Z,51.82
2019-03-02T01:42:34.608Z,51.99
2019-03-02T01:45:01.263Z,52.02
2019-03-02T01:47:28.077Z,52.08
2019-03-02T01:49:54.837Z,51.98
2019-03-02T01:52:21.633Z,51.76
2019-03-02T01:54:48.650Z,51.29
2019-03-02T01:57:17.192Z,50.65
2019-03-02T01:59:43.917Z,51.07
2019-03-02T02:02:10.651Z,51.65
2019-03-02T02:04:37.265Z,52.15
2019-03-02T02:07:04.590Z,51.64
2019-03-02T02:09:31.415Z,52.03
2019-03-02T02:11:58.089Z,52.24
2019-03-02T02:14:25.574Z,51.70
2019-03-02T02:16:52.758Z,51.95
2019-03-02T02:19:19.664Z,52.03
2019-03-02T02:21:46.304Z,52.26
2019-03-02T02:24:14.305Z,52.48
2019-03-02T02:26:43.897Z,52.31
2019-03-02T02:29:09.557Z,52.45
2019-03-02T02:31:44.580Z,52.47
2019-03-02T02:34:05.564Z,52.28
2019-03-02T02:36:32.248Z,52.02
2019-03-02T02:38:59.467Z,52.15
2019-03-02T02:41:26.540Z,51.88
2019-03-02T02:43:54.384Z,52.34
2019-03-02T02:46:22.090Z,52.45
2019-03-02T02:48:48.737Z,52.29
2019-03-02T02:51:15.591Z,51.98
2019-03-02T02:53:45.015Z,51.87
2019-03-02T02:56:14.515Z,51.72
2019-03-02T02:58:39.281Z,52.00
2019-03-02T03:01:06.009Z,52.00
2019-03-02T03:03:33.066Z,51.61
2019-03-02T03:06:09.199Z,51.90
2019-03-02T03:08:36.053Z,51.72
2019-03-02T03:11:06.600Z,52.22
2019-03-02T03:13:36.016Z,51.33
2019-03-02T03:15:59.898Z,51.56
2019-03-02T03:18:26.564Z,52.13
2019-03-02T03:20:53.470Z,52.34
2019-03-02T03:23:24.954Z,52.25
2019-03-02T03:25:55.896Z,51.63
2019-03-02T03:28:17.400Z,51.92
2019-03-02T03:30:46.434Z,51.85
2019-03-02T03:33:21.897Z,52.19
2019-03-02T03:35:51.776Z,52.65
2019-03-02T03:40:50.115Z,53.36
2019-03-02T03:43:16.901Z,53.80
2019-03-02T03:48:28.089Z,52.68
2019-03-02T03:50:54.815Z,52.63
2019-03-02T03:53:26.257Z,52.32
2019-03-02T03:55:50.349Z,52.44
2019-03-02T03:58:17.010Z,52.51
2019-03-02T04:00:43.984Z,52.52
2019-03-02T04:03:13.794Z,52.48
2019-03-02T04:05:42.039Z,52.78
2019-03-02T04:08:08.034Z,53.33
2019-03-02T04:10:35.931Z,52.74
2019-03-02T04:13:04.942Z,52.37
2019-03-02T04:15:40.876Z,52.97
2019-03-02T04:18:01.795Z,53.49
2019-03-02T04:20:31.014Z,53.52
2019-03-02T04:22:57.633Z,53.62
2019-03-02T04:25:24.523Z,52.97
2019-03-02T04:27:54.581Z,54.13
2019-03-02T04:30:20.783Z,54.12
2019-03-02T04:32:47.479Z,54.10
2019-03-02T04:35:14.385Z,54.48
2019-03-02T04:37:41.072Z,54.52
2019-03-02T04:40:07.721Z,54.74
2019-03-02T04:42:34.478Z,54.02
2019-03-02T04:45:01.589Z,53.73
2019-03-02T04:47:29.680Z,53.50
2019-03-02T04:49:56.571Z,53.70
2019-03-02T04:52:23.228Z,54.25
2019-03-02T04:54:49.966Z,54.54
2019-03-02T04:57:17.353Z,54.58
2019-03-02T04:59:44.052Z,54.45
2019-03-02T05:02:10.721Z,54.24
2019-03-02T05:04:37.439Z,53.68
2019-03-02T05:07:06.679Z,53.56
2019-03-02T05:09:36.329Z,52.91
2019-03-02T05:12:05.661Z,53.07
2019-03-02T05:14:32.274Z,53.17
2019-03-02T05:17:03.399Z,52.98
2019-03-02T05:19:29.946Z,52.96
2019-03-02T05:21:59.196Z,52.81
2019-03-02T05:24:26.966Z,52.65
2019-03-02T05:26:56.703Z,52.71
2019-03-02T05:29:22.324Z,52.95
2019-03-02T05:31:51.804Z,53.43
2019-03-02T05:34:21.842Z,53.51
2019-03-02T05:36:52.038Z,53.67
2019-03-02T05:39:22.598Z,53.62
2019-03-02T05:41:53.207Z,53.60
2019-03-02T05:44:21.291Z,53.82
2019-03-02T05:46:53.080Z,53.63
2019-03-02T05:49:20.448Z,53.28
2019-03-02T05:51:49.624Z,53.13
2019-03-02T05:54:16.553Z,53.04
2019-03-02T05:56:44.760Z,53.05
2019-03-02T05:59:26.665Z,53.23
2019-03-02T06:01:53.493Z,53.19
2019-03-02T06:04:22.099Z,53.31
2019-03-02T06:06:50.771Z,53.53
2019-03-02T06:09:18.085Z,53.22
2019-03-02T06:11:44.713Z,53.00
2019-03-02T06:14:13.789Z,53.01
2019-03-02T06:16:40.585Z,53.45
2019-03-02T06:19:07.502Z,53.65
2019-03-02T06:21:34.126Z,53.42
2019-03-02T06:24:01.599Z,53.68
2019-03-02T06:26:31.789Z,53.63
2019-03-02T06:28:58.017Z,52.88
2019-03-02T06:31:25.377Z,52.72
2019-03-02T06:33:52.172Z,52.53
2019-03-02T06:36:18.799Z,52.53
2019-03-02T06:38:45.434Z,52.20
2019-03-02T06:41:12.310Z,52.44
2019-03-02T06:43:39.660Z,52.49
2019-03-02T06:46:06.342Z,53.03
2019-03-02T06:48:32.929Z,53.09
2019-03-02T06:51:02.344Z,53.21
2019-03-02T06:53:28.240Z,52.64
2019-03-02T06:56:00.821Z,52.67
2019-03-02T06:58:29.310Z,52.55
2019-03-02T07:00:58.470Z,52.24
2019-03-02T07:03:25.435Z,52.28
2019-03-02T07:05:52.290Z,52.46
2019-03-02T07:08:19.225Z,52.70
2019-03-02T07:10:46.455Z,52.47
2019-03-02T07:13:13.793Z,52.99
2019-03-02T07:15:43.657Z,53.43
2019-03-02T07:18:09.020Z,52.83
2019-03-02T07:20:35.610Z,52.26
2019-03-02T07:23:02.645Z,51.59
2019-03-02T07:25:29.510Z,50.38
2019-03-02T07:27:56.650Z,50.34
2019-03-02T07:30:23.548Z,50.60
2019-03-02T07:32:50.752Z,50.10
2019-03-02T07:35:19.311Z,49.62
2019-03-02T07:37:46.753Z,49.43
2019-03-02T07:40:13.871Z,49.33
2019-03-02T07:42:40.808Z,49.18
2019-03-02T07:45:07.463Z,48.56
2019-03-02T07:47:34.047Z,48.18
2019-03-02T07:50:01.482Z,48.03
2019-03-02T07:52:28.665Z,47.55
2019-03-02T07:54:58.317Z,47.71
2019-03-02T07:57:24.050Z,47.43
2019-03-02T07:59:50.743Z,48.01
2019-03-02T08:02:17.353Z,48.33
2019-03-02T08:04:44.136Z,47.89
2019-03-02T08:07:11.041Z,48.51
2019-03-02T08:09:37.645Z,48.19
2019-03-02T08:12:04.465Z,48.62
2019-03-02T08:14:31.631Z,47.67
2019-03-02T08:16:58.448Z,47.84
2019-03-02T08:19:25.357Z,48.28
2019-03-02T08:21:51.950Z,47.80
2019-03-02T08:24:18.588Z,48.00
2019-03-02T08:26:46.147Z,48.20
2019-03-02T08:29:17.741Z,48.54
2019-03-02T08:34:35.313Z,47.86
2019-03-02T08:37:01.918Z,47.96
2019-03-02T08:39:28.781Z,47.12
2019-03-02T08:41:55.704Z,47.28
2019-03-02T08:44:22.767Z,47.06
2019-03-02T08:46:49.603Z,46.59
2019-03-02T08:49:16.962Z,46.97
2019-03-02T08:51:43.621Z,47.05
2019-03-02T08:54:10.547Z,47.65
2019-03-02T08:56:37.181Z,47.73
2019-03-02T08:59:03.836Z,48.20
2019-03-02T09:01:30.628Z,47.72
2019-03-02T09:03:57.312Z,47.72
2019-03-02T09:06:24.182Z,47.32
2019-03-02T09:08:50.829Z,47.30
2019-03-02T09:11:17.825Z,47.43
2019-03-02T09:13:44.720Z,47.26
2019-03-02T09:16:11.430Z,47.02
2019-03-02T09:18:45.332Z,47.04
2019-03-02T09:21:08.986Z,47.08
2019-03-02T09:23:37.106Z,47.93
2019-03-02T09:26:04.525Z,47.83
2019-03-02T09:28:32.085Z,47.91
2019-03-02T09:31:02.075Z,48.07
2019-03-02T09:33:28.773Z,47.92
2019-03-02T09:35:56.397Z,48.89
2019-03-02T09:38:23.330Z,48.51
2019-03-02T09:40:50.770Z,48.19
2019-03-02T09:43:17.573Z,47.79
2019-03-02T09:45:44.755Z,47.33
2019-03-02T09:48:12.692Z,47.10
2019-03-02T09:50:39.284Z,46.14
2019-03-02T09:53:05.957Z,46.40
2019-03-02T09:55:33.128Z,46.73
2019-03-02T09:57:59.859Z,46.79
2019-03-02T10:00:26.792Z,45.64
2019-03-02T10:02:53.705Z,45.46
2019-03-02T10:05:20.383Z,44.47
2019-03-02T10:07:47.887Z,44.58
2019-03-02T10:10:14.530Z,44.39
2019-03-02T10:12:41.478Z,44.76
2019-03-02T10:15:08.143Z,44.45
2019-03-02T10:17:38.495Z,44.12
2019-03-02T10:20:05.233Z,44.27
2019-03-02T10:22:32.277Z,44.27
2019-03-02T10:24:58.955Z,44.58
2019-03-02T10:27:25.977Z,43.59
2019-03-02T10:29:52.857Z,44.19
2019-03-02T10:32:20.009Z,44.38
2019-03-02T10:34:48.094Z,44.97
2019-03-02T10:37:14.885Z,44.91
2019-03-02T10:39:41.871Z,44.81
2019-03-02T10:42:13.432Z,45.43
2019-03-02T10:44:38.685Z,45.36
2019-03-02T10:47:05.544Z,45.35
2019-03-02T10:49:32.295Z,45.82
2019-03-02T10:52:02.831Z,44.60
2019-03-02T10:54:31.684Z,44.86
2019-03-02T10:56:59.833Z,45.76
2019-03-02T10:59:26.664Z,46.36
2019-03-02T11:01:53.576Z,46.59
2019-03-02T11:04:20.334Z,45.51
2019-03-02T11:06:49.402Z,44.94
2019-03-02T11:09:22.340Z,45.12
2019-03-02T11:11:44.869Z,45.49
2019-03-02T11:14:11.489Z,45.17
2019-03-02T11:16:38.532Z,44.54
2019-03-02T11:19:07.995Z,44.41
2019-03-02T11:21:35.524Z,44.82
2019-03-02T11:24:03.352Z,44.78
2019-03-02T11:26:30.674Z,44.26
2019-03-02T11:28:57.695Z,44.17
2019-03-02T11:31:25.641Z,44.88
2019-03-02T11:33:53.452Z,45.06
2019-03-02T11:36:20.968Z,44.62
2019-03-02T11:38:49.056Z,44.63
2019-03-02T11:41:15.840Z,44.73
2019-03-02T11:43:42.657Z,44.23
2019-03-02T11:46:09.285Z,43.95
2019-03-02T11:48:35.907Z,43.59
2019-03-02T11:51:03.555Z,44.06
2019-03-02T11:53:30.657Z,43.70
2019-03-02T11:56:09.511Z,42.98
2019-03-02T11:58:36.976Z,42.48
2019-03-02T12:01:06.549Z,42.31
2019-03-02T12:03:35.369Z,43.64
2019-03-02T12:06:05.988Z,44.46
2019-03-02T12:08:31.532Z,42.71
2019-03-02T12:10:58.417Z,43.14
2019-03-02T12:13:27.752Z,43.97
2019-03-02T12:15:54.307Z,42.92
2019-03-02T12:18:20.932Z,42.21
2019-03-02T12:20:47.894Z,42.53
2019-03-02T12:23:14.510Z,42.94
2019-03-02T12:25:42.032Z,43.03
2019-03-02T12:28:08.940Z,43.18
2019-03-02T12:30:36.158Z,42.81
2019-03-02T12:33:04.124Z,43.17
2019-03-02T12:35:34.451Z,42.73
2019-03-02T12:37:59.766Z,42.61
2019-03-02T12:40:26.585Z,42.44
2019-03-02T12:42:54.559Z,43.03
2019-03-02T12:45:21.262Z,41.98
2019-03-02T12:47:48.318Z,42.09
2019-03-02T12:50:18.914Z,41.55
2019-03-02T12:52:48.161Z,42.20
2019-03-02T12:55:16.394Z,42.77
2019-03-02T12:57:45.497Z,41.96
2019-03-02T13:00:10.598Z,42.14
2019-03-02T13:02:37.403Z,41.72
2019-03-02T13:05:06.573Z,42.41
2019-03-02T13:07:35.733Z,42.44
2019-03-02T13:10:02.625Z,43.25
2019-03-02T13:12:32.436Z,42.92
2019-03-02T13:14:59.675Z,42.11
2019-03-02T13:17:33.140Z,42.42
2019-03-02T13:20:02.745Z,42.28
2019-03-02T13:22:33.495Z,42.15
2019-03-02T13:25:03.579Z,43.24
2019-03-02T13:27:31.040Z,42.78
2019-03-02T13:29:59.869Z,43.10
2019-03-02T13:32:28.826Z,42.61
2019-03-02T13:35:00.497Z,42.54
2019-03-02T13:37:29.767Z,42.53
2019-03-02T13:39:56.943Z,42.22
2019-03-02T13:42:27.347Z,42.36
2019-03-02T13:45:00.322Z,42.05
2019-03-02T13:47:27.241Z,41.29
2019-03-02T13:49:55.341Z,42.27
2019-03-02T13:52:22.081Z,42.63
2019-03-02T13:54:50.889Z,42.98
2019-03-02T13:57:17.475Z,43.06
2019-03-02T13:59:46.199Z,42.72
2019-03-02T14:02:12.698Z,42.14
2019-03-02T14:04:39.561Z,42.32
2019-03-02T14:07:10.808Z,42.48
2019-03-02T14:09:37.974Z,41.87
2019-03-02T14:12:08.107Z,41.93
2019-03-02T14:14:41.092Z,42.46
2019-03-02T14:17:08.316Z,42.33
2019-03-02T14:19:42.018Z,41.79
2019-03-02T14:22:11.312Z,42.29
2019-03-02T14:24:38.911Z,42.42
2019-03-02T14:27:05.957Z,43.40
2019-03-02T14:29:42.960Z,42.61
2019-03-02T14:32:13.500Z,42.37
2019-03-02T14:34:40.273Z,42.64
2019-03-02T14:37:08.015Z,42.48
2019-03-02T14:39:38.065Z,42.62
2019-03-02T14:42:08.720Z,42.96
2019-03-02T14:44:39.500Z,43.29
2019-03-02T14:47:06.408Z,43.52
2019-03-02T14:49:34.068Z,43.49
2019-03-02T14:52:05.986Z,43.47
2019-03-02T14:54:34.018Z,43.34
2019-03-02T14:57:05.108Z,43.37
2019-03-02T14:59:34.703Z,43.88
2019-03-02T15:02:02.302Z,44.06
2019-03-02T15:04:31.268Z,42.83
2019-03-02T15:06:58.123Z,42.92
2019-03-02T15:09:26.277Z,43.40
2019-03-02T15:11:53.242Z,43.78
2019-03-02T15:14:20.467Z,43.49
2019-03-02T15:16:47.287Z,42.85
2019-03-02T15:19:15.995Z,42.67
2019-03-02T15:21:47.742Z,43.03
2019-03-02T15:24:14.995Z,42.59
2019-03-02T15:26:43.287Z,43.14
2019-03-02T15:29:25.085Z,43.01
2019-03-02T15:31:58.390Z,42.73
2019-03-02T15:34:24.735Z,43.61
2019-03-02T15:36:53.907Z,43.29
2019-03-02T15:39:22.810Z,43.33
2019-03-02T15:41:50.268Z,42.78
2019-03-02T15:44:22.685Z,42.52
2019-03-02T15:46:50.250Z,42.45
2019-03-02T15:49:18.262Z,42.40
2019-03-02T15:54:22.986Z,42.50
2019-03-02T15:56:49.286Z,42.54
2019-03-02T15:59:19.118Z,43.12
2019-03-02T16:01:45.521Z,43.07
2019-03-02T16:04:31.787Z,43.85
2019-03-02T16:06:54.981Z,43.11
2019-03-02T16:09:25.215Z,43.30
2019-03-02T16:11:50.332Z,42.98
2019-03-02T16:14:18.528Z,43.20
2019-03-02T16:16:45.450Z,43.08
2019-03-02T16:19:12.444Z,43.36
2019-03-02T16:21:41.619Z,43.59
2019-03-02T16:24:08.628Z,43.76
2019-03-02T16:26:37.111Z,44.15
2019-03-02T16:29:04.195Z,43.92
2019-03-02T16:31:34.247Z,43.81
2019-03-02T16:34:04.397Z,43.67
2019-03-02T16:36:29.419Z,44.25
2019-03-02T16:38:57.738Z,44.58
2019-03-02T16:41:27.226Z,44.92
2019-03-02T16:43:53.830Z,45.10
2019-03-02T16:46:22.858Z,45.36
2019-03-02T16:48:53.521Z,45.63
2019-03-02T16:51:20.584Z,46.03
2019-03-02T16:53:48.567Z,46.15
2019-03-02T16:56:17.070Z,46.03
2019-03-02T16:58:44.531Z,45.92
2019-03-02T17:01:11.158Z,46.00
2019-03-02T17:03:39.091Z,46.17
2019-03-02T17:06:11.177Z,46.40
2019-03-02T17:08:38.054Z,46.15
2019-03-02T17:11:07.042Z,46.45
2019-03-02T17:13:34.604Z,47.68
2019-03-02T17:16:03.306Z,49.00
2019-03-02T17:18:31.587Z,49.95
2019-03-02T17:20:58.318Z,50.18
2019-03-02T17:23:26.964Z,50.23
2019-03-02T17:25:53.841Z,50.21
2019-03-02T17:28:21.004Z,50.09
2019-03-02T17:30:53.088Z,50.29
2019-03-02T17:33:26.790Z,50.97
2019-03-02T17:35:50.534Z,51.09
2019-03-02T17:38:19.227Z,50.83
2019-03-02T17:40:46.110Z,50.80
2019-03-02T17:43:13.092Z,50.94
2019-03-02T17:45:40.012Z,50.65
2019-03-02T17:48:08.179Z,50.52
2019-03-02T17:50:36.083Z,50.66
2019-03-02T17:53:05.366Z,50.86
2019-03-02T17:55:32.203Z,50.96
2019-03-02T17:58:01.184Z,50.34
2019-03-02T18:00:30.753Z,49.98
2019-03-02T18:02:57.134Z,50.13
2019-03-02T18:05:24.085Z,50.44
2019-03-02T18:07:53.441Z,50.56
2019-03-02T18:10:22.764Z,50.10
2019-03-02T18:12:49.402Z,50.25
2019-03-02T18:15:16.472Z,51.09
2019-03-02T18:17:46.348Z,51.54
2019-03-02T18:20:15.993Z,52.04
2019-03-02T18:22:46.470Z,51.73
2019-03-02T18:25:17.029Z,51.57
2019-03-02T18:27:43.931Z,52.03
2019-03-02T18:30:10.515Z,52.78
2019-03-02T18:32:37.347Z,52.96
2019-03-02T18:35:07.924Z,53.34
2019-03-02T18:37:35.700Z,53.61
2019-03-02T18:40:03.968Z,53.83
2019-03-02T18:45:23.945Z,53.27
2019-03-02T18:47:54.351Z,52.92
2019-03-02T18:50:21.117Z,52.82
2019-03-02T18:52:53.699Z,53.00
2019-03-02T18:55:27.160Z,52.99
2019-03-02T18:57:55.901Z,52.48
2019-03-02T19:00:25.044Z,51.84
2019-03-02T19:02:54.828Z,52.04
2019-03-02T19:05:21.795Z,51.75
2019-03-02T19:07:51.006Z,51.51
2019-03-02T19:10:23.048Z,51.56
2019-03-02T19:12:50.669Z,51.67
2019-03-02T19:15:17.969Z,51.74
2019-03-02T19:17:49.499Z,51.41
2019-03-02T19:20:16.195Z,51.07
2019-03-02T19:22:45.194Z,51.06
2019-03-02T19:25:15.014Z,51.22
2019-03-02T19:27:41.907Z,51.10
2019-03-02T19:30:09.027Z,50.66
2019-03-02T19:32:38.915Z,50.77
2019-03-02T19:35:08.564Z,51.18
2019-03-02T19:37:40.223Z,51.26
2019-03-02T19:40:09.127Z,51.19
2019-03-02T19:42:36.561Z,50.84
2019-03-02T19:45:03.248Z,51.45
2019-03-02T19:47:32.603Z,51.70
2019-03-02T19:50:01.325Z,51.91
2019-03-02T19:52:27.950Z,52.21
2019-03-02T19:54:57.589Z,52.74
2019-03-02T19:57:24.253Z,53.10
2019-03-02T19:59:52.231Z,52.46
2019-03-02T20:02:22.433Z,52.26
2019-03-02T20:04:51.457Z,52.62
2019-03-02T20:07:21.596Z,52.82
2019-03-02T20:09:50.803Z,52.36
2019-03-02T20:12:19.161Z,52.11
2019-03-02T20:14:45.873Z,52.10
2019-03-02T20:17:14.667Z,52.01
2019-03-02T20:19:43.183Z,51.82
2019-03-02T20:22:12.218Z,51.87
2019-03-02T20:24:43.180Z,51.94
2019-03-02T20:27:10.149Z,51.67
2019-03-02T20:29:40.159Z,51.30
2019-03-02T20:32:07.571Z,51.88
2019-03-02T20:34:36.648Z,52.28
2019-03-02T20:37:06.231Z,52.36
2019-03-02T20:39:51.287Z,52.34
2019-03-02T20:42:21.210Z,52.62
2019-03-02T20:44:48.547Z,52.62
2019-03-02T20:47:18.309Z,52.26
2019-03-02T20:49:45.626Z,52.21
2019-03-02T20:52:16.554Z,52.59
2019-03-02T20:54:45.823Z,53.19
2019-03-02T20:57:14.538Z,53.48
2019-03-02T20:59:42.428Z,53.54
2019-03-02T21:02:09.335Z,53.51
2019-03-02T21:04:36.993Z,53.52
2019-03-02T21:07:04.055Z,53.49
2019-03-02T21:09:30.772Z,53.50
2019-03-02T21:11:57.577Z,53.89
2019-03-02T21:14:24.799Z,54.24
2019-03-02T21:16:51.744Z,53.74
2019-03-02T21:19:19.040Z,53.39
2019-03-02T21:21:45.821Z,53.32
2019-03-02T21:24:13.093Z,53.97
2019-03-02T21:26:41.595Z,54.30
2019-03-02T21:29:08.257Z,54.06
2019-03-02T21:31:35.057Z,53.37
2019-03-02T21:34:01.986Z,52.97
2019-03-02T21:36:28.595Z,52.90
2019-03-02T21:38:55.447Z,53.15
2019-03-02T21:41:22.524Z,53.46
2019-03-02T21:43:49.136Z,53.28
2019-03-02T21:46:16.112Z,53.03
2019-03-02T21:48:43.422Z,53.09
2019-03-02T21:51:11.600Z,52.80
2019-03-02T21:53:38.387Z,52.72
2019-03-02T21:56:05.272Z,52.82
2019-03-02T21:58:31.865Z,52.68
2019-03-02T22:00:58.597Z,52.39
2019-03-02T22:03:25.509Z,52.26
2019-03-02T22:05:52.374Z,52.05
2019-03-02T22:08:20.129Z,52.27
2019-03-02T22:10:46.788Z,52.57
2019-03-02T22:13:13.478Z,52.62
2019-03-02T22:15:41.515Z,52.64
2019-03-02T22:18:08.190Z,52.72
2019-03-02T22:20:34.900Z,53.07
2019-03-02T22:23:01.515Z,53.50
2019-03-02T22:25:28.260Z,52.91
2019-03-02T22:27:54.996Z,53.19
2019-03-02T22:30:22.227Z,53.30
2019-03-02T22:32:49.083Z,53.44
2019-03-02T22:35:15.689Z,53.51
2019-03-02T22:37:42.599Z,53.26
2019-03-02T22:40:09.314Z,53.52
2019-03-02T22:42:36.467Z,53.89
2019-03-02T22:45:03.690Z,54.16
2019-03-02T22:47:30.662Z,54.07
2019-03-02T22:49:57.362Z,54.70
2019-03-02T22:52:24.003Z,54.38
2019-03-02T22:54:50.698Z,54.24
2019-03-02T22:57:17.617Z,53.69
2019-03-02T22:59:44.493Z,53.99
2019-03-02T23:02:12.378Z,54.50
2019-03-02T23:04:39.165Z,54.77
2019-03-02T23:07:05.884Z,54.85
2019-03-02T23:09:32.593Z,54.69
2019-03-02T23:11:59.232Z,54.42
2019-03-02T23:14:26.167Z,54.06
2019-03-02T23:16:55.127Z,54.12
2019-03-02T23:19:21.513Z,54.71
2019-03-02T23:21:48.803Z,55.17
2019-03-02T23:24:15.527Z,55.12
2019-03-02T23:26:43.950Z,54.90
2019-03-02T23:29:10.739Z,54.70
2019-03-02T23:31:37.636Z,54.80
2019-03-02T23:34:04.400Z,54.44
2019-03-02T23:36:31.019Z,54.11
2019-03-02T23:38:58.063Z,53.99
2019-03-02T23:41:25.078Z,54.58
2019-03-02T23:43:51.944Z,55.28
2019-03-02T23:46:18.830Z,55.02
2019-03-02T23:48:46.169Z,55.16
2019-03-02T23:51:14.312Z,55.16
2019-03-02T23:53:41.022Z,55.04
2019-03-02T23:56:07.973Z,54.65
2019-03-02T23:58:34.665Z,54.77
